createdAt,value
2019-03-26T00:00:04.340Z,51.9
2019-03-26T00:15:05.058Z,52.5
2019-03-26T00:30:04.623Z,53
2019-03-26T00:45:04.321Z,53.3
2019-03-26T01:00:05.050Z,54.1
2019-03-26T01:15:04.391Z,54.3
2019-03-26T01:30:04.933Z,55
2019-03-26T01:45:04.636Z,55.2
2019-03-26T02:00:04.394Z,55.6
2019-03-26T02:15:04.695Z,55.2
2019-03-26T02:30:04.748Z,56.2
2019-03-26T02:45:04.440Z,56.3
2019-03-26T03:00:04.212Z,56.2
2019-03-26T03:15:04.474Z,56.4
2019-03-26T03:30:05.062Z,56.1
2019-03-26T03:45:04.866Z,56.5
2019-03-26T04:00:04.333Z,56.6
2019-03-26T04:15:04.087Z,56.5
2019-03-26T04:30:04.554Z,56.6
2019-03-26T04:45:04.290Z,56.8
2019-03-26T05:00:05.067Z,56.6
2019-03-26T05:15:04.329Z,56.7
2019-03-26T05:30:04.954Z,56.7
2019-03-26T05:45:04.212Z,57
2019-03-26T06:00:04.537Z,57
2019-03-26T06:15:04.830Z,57.2
2019-03-26T06:30:04.193Z,57.2
2019-03-26T06:45:04.908Z,57
2019-03-26T07:00:07.470Z,57.3
2019-03-26T07:15:04.264Z,57.2
2019-03-26T07:30:04.719Z,57.4
2019-03-26T07:45:04.957Z,57.5
2019-03-26T08:00:04.780Z,57.7
2019-03-26T08:15:04.161Z,57.6
2019-03-26T08:30:04.508Z,57.4
2019-03-26T08:45:04.251Z,57
2019-03-26T09:00:05.005Z,57.3
2019-03-26T09:15:04.330Z,58.5
2019-03-26T09:30:04.797Z,72.2
2019-03-26T09:45:05.037Z,55.4
2019-03-26T10:00:04.301Z,51.1
2019-03-26T10:15:04.488Z,52.6
2019-03-26T10:30:06.017Z,52.1
2019-03-26T10:45:04.341Z,51.8
2019-03-26T11:00:04.688Z,51.5
2019-03-26T11:15:04.490Z,51.3
2019-03-26T11:30:04.503Z,51
2019-03-26T11:45:04.251Z,50
2019-03-26T12:00:04.494Z,49.8
2019-03-26T12:15:04.722Z,50.2
2019-03-26T12:30:04.662Z,49.5
2019-03-26T12:45:07.379Z,49.5
2019-03-26T13:00:04.348Z,48.8
2019-03-26T13:15:04.179Z,48.9
2019-03-26T13:30:04.286Z,48.8
2019-03-26T13:45:04.566Z,48.2
2019-03-26T14:00:04.327Z,47.6
2019-03-26T14:15:04.760Z,47.2
2019-03-26T14:30:04.901Z,47.3
2019-03-26T14:45:04.652Z,46.4
2019-03-26T15:00:04.443Z,46.2
2019-03-26T15:15:04.800Z,45.8
2019-03-26T15:30:04.399Z,46
2019-03-26T15:45:04.729Z,46.3
2019-03-26T16:00:04.542Z,45.7
2019-03-26T16:15:04.816Z,45.8
2019-03-26T16:30:04.733Z,45.4
2019-03-26T16:45:04.418Z,45
2019-03-26T17:00:05.398Z,44.6
2019-03-26T17:15:04.167Z,44.7
2019-03-26T17:30:04.415Z,44.7
2019-03-26T17:45:04.734Z,44.8
2019-03-26T18:00:04.986Z,44.8
2019-03-26T18:15:04.770Z,44.7
2019-03-26T18:30:04.247Z,44.5
2019-03-26T18:45:04.696Z,44.5
2019-03-26T19:00:04.242Z,44.5
2019-03-26T19:15:04.589Z,44.6
2019-03-26T19:30:04.146Z,44.5
2019-03-26T19:45:04.892Z,44.4
2019-03-26T20:00:04.665Z,44.8
2019-03-26T20:15:04.904Z,44.8
2019-03-26T20:30:04.884Z,45.1
2019-03-26T20:45:04.600Z,45.3
2019-03-26T21:00:05.002Z,45.2
2019-03-26T21:15:04.424Z,45.3
2019-03-26T21:30:15.482Z,45.5
2019-03-26T21:45:04.562Z,45.9
2019-03-26T22:00:04.821Z,46
2019-03-26T22:15:04.176Z,46.1
2019-03-26T22:30:04.114Z,46
2019-03-26T22:45:04.434Z,46.3
2019-03-26T23:00:04.692Z,46.3
2019-03-26T23:15:05.027Z,46.2
2019-03-26T23:30:04.478Z,46.7
2019-03-26T23:45:04.246Z,46.7
